Time;durP1;ratioP1;P1;durP2;ratioP2;P2;SDS_P1;SDS_P2;PMS_P1;PMS_P2;Temp;Humidity;BMP_temperature;BMP_pressure;BME280_temperature;BME280_humidity;BME280_pressure;Samples;Min_cycle;Max_cycle;Signal;HPM_P1;HPM_P2
2023/04/26 00:01:26;;;;;;;11.20;5.20;;;5.00;99.90;;;;;;5018202;28;20778;-71
2023/04/26 00:03:56;;;;;;;10.63;4.60;;;5.00;99.90;;;;;;5018196;28;20461;-71
2023/04/26 00:06:26;;;;;;;10.07;4.90;;;5.00;99.90;;;;;;5017318;28;20554;-71
2023/04/26 00:08:54;;;;;;;10.63;5.00;;;5.00;99.90;;;;;;5017190;28;20478;-71
2023/04/26 00:11:23;;;;;;;14.27;5.50;;;5.00;99.90;;;;;;5017098;28;20476;-71
2023/04/26 00:13:51;;;;;;;7.30;5.17;;;5.00;99.90;;;;;;5018480;28;20459;-71
2023/04/26 00:16:19;;;;;;;8.80;5.40;;;5.00;99.90;;;;;;5018196;28;20440;-71
2023/04/26 00:18:48;;;;;;;8.80;4.97;;;5.00;99.90;;;;;;5018061;28;20436;-71
2023/04/26 00:21:17;;;;;;;14.17;5.63;;;5.00;99.90;;;;;;5018239;28;20444;-71
2023/04/26 00:23:45;;;;;;;8.50;4.43;;;5.00;99.90;;;;;;5017997;28;20455;-71
2023/04/26 00:26:13;;;;;;;13.00;5.40;;;4.90;99.90;;;;;;5018026;28;20854;-71
2023/04/26 00:28:41;;;;;;;13.17;5.10;;;4.90;99.90;;;;;;5017672;28;20450;-71
2023/04/26 00:31:14;;;;;;;12.40;5.07;;;4.90;99.90;;;;;;5018405;28;20440;-71
2023/04/26 00:33:43;;;;;;;11.37;5.03;;;4.90;99.90;;;;;;5016768;28;20483;-71
2023/04/26 00:36:12;;;;;;;12.73;5.67;;;4.90;99.90;;;;;;5018246;28;20434;-71
2023/04/26 00:38:42;;;;;;;8.97;6.23;;;4.80;99.90;;;;;;5017670;28;20444;-71
2023/04/26 00:41:10;;;;;;;8.10;5.00;;;4.80;99.90;;;;;;5018026;28;20473;-71
2023/04/26 00:43:38;;;;;;;9.63;5.57;;;4.70;99.90;;;;;;5017962;28;20459;-71
2023/04/26 00:46:08;;;;;;;11.40;6.30;;;4.80;99.90;;;;;;5018382;28;20473;-71
2023/04/26 00:48:37;;;;;;;7.67;5.17;;;4.70;99.90;;;;;;5016345;28;20456;-71
2023/04/26 00:51:06;;;;;;;7.90;5.43;;;4.70;99.90;;;;;;5018080;28;20442;-71
2023/04/26 00:53:34;;;;;;;9.10;5.47;;;4.70;99.90;;;;;;5017493;28;20489;-71
2023/04/26 00:56:06;;;;;;;11.27;6.07;;;4.70;99.90;;;;;;5016506;28;20462;-71
2023/04/26 00:58:34;;;;;;;14.57;7.03;;;4.60;99.90;;;;;;5017859;28;20423;-71
2023/04/26 01:01:03;;;;;;;12.03;5.50;;;4.60;99.90;;;;;;5017075;28;20496;-71
2023/04/26 01:03:31;;;;;;;8.07;5.73;;;4.60;99.90;;;;;;5016191;28;20472;-71
2023/04/26 01:06:01;;;;;;;12.40;6.33;;;4.60;99.90;;;;;;5016125;28;20440;-71
2023/04/26 01:08:29;;;;;;;6.83;4.73;;;4.60;99.90;;;;;;5017681;28;20551;-71
2023/04/26 01:10:58;;;;;;;10.50;6.27;;;4.60;99.90;;;;;;5017882;28;20438;-71
2023/04/26 01:13:29;;;;;;;12.10;5.70;;;4.60;99.90;;;;;;5017498;28;20483;-71
2023/04/26 01:15:59;;;;;;;9.37;6.50;;;4.60;99.90;;;;;;5017134;28;20507;-71
2023/04/26 01:18:27;;;;;;;11.30;5.90;;;4.60;99.90;;;;;;5015813;28;20455;-71
2023/04/26 01:20:56;;;;;;;10.87;5.47;;;4.60;99.90;;;;;;5016367;28;20447;-71
2023/04/26 01:23:29;;;;;;;10.70;5.73;;;4.60;99.90;;;;;;5016250;28;20490;-71
2023/04/26 01:25:59;;;;;;;10.50;5.20;;;4.60;99.90;;;;;;5015976;28;20436;-71
2023/04/26 01:28:27;;;;;;;9.70;5.63;;;4.60;99.90;;;;;;5015942;28;20451;-71
2023/04/26 01:30:56;;;;;;;10.97;5.73;;;4.60;99.90;;;;;;5015431;28;21036;-71
2023/04/26 01:33:24;;;;;;;8.30;5.37;;;4.60;99.90;;;;;;5016176;28;20551;-71
2023/04/26 01:35:52;;;;;;;8.43;5.23;;;4.60;99.90;;;;;;5017500;28;20491;-71
2023/04/26 01:38:20;;;;;;;10.77;5.60;;;4.60;99.90;;;;;;5016900;28;20451;-71
2023/04/26 01:40:50;;;;;;;8.27;5.20;;;4.60;99.90;;;;;;5015541;28;20444;-71
2023/04/26 01:43:19;;;;;;;10.73;6.00;;;4.70;99.90;;;;;;5015683;28;20460;-71
2023/04/26 01:45:48;;;;;;;11.17;6.10;;;4.70;99.90;;;;;;5017131;28;20462;-71
2023/04/26 01:48:31;;;;;;;11.23;6.20;;;4.70;99.90;;;;;;5016144;28;20467;-71
2023/04/26 01:51:01;;;;;;;22.63;7.00;;;4.70;99.90;;;;;;5015949;28;20498;-71
2023/04/26 01:53:29;;;;;;;14.23;6.13;;;4.70;99.90;;;;;;5015293;28;20484;-71
2023/04/26 01:56:02;;;;;;;11.10;5.93;;;4.70;99.90;;;;;;5016070;28;20451;-71
2023/04/26 01:58:31;;;;;;;12.00;6.37;;;4.70;99.90;;;;;;5015993;28;20451;-71
2023/04/26 02:01:06;;;;;;;10.63;6.10;;;4.70;99.90;;;;;;5015815;28;20466;-71
2023/04/26 02:03:34;;;;;;;9.90;6.03;;;4.70;99.90;;;;;;5016781;28;20830;-71
2023/04/26 02:06:04;;;;;;;15.43;6.63;;;4.70;99.90;;;;;;5015550;28;20459;-71
2023/04/26 02:08:32;;;;;;;9.97;6.47;;;4.70;99.90;;;;;;5015729;28;20480;-71
2023/04/26 02:11:01;;;;;;;11.93;7.00;;;4.70;99.90;;;;;;5015591;28;20440;-71
2023/04/26 02:13:30;;;;;;;8.70;6.00;;;4.70;99.90;;;;;;5014936;28;20503;-71
2023/04/26 02:15:58;;;;;;;9.47;6.07;;;4.70;99.90;;;;;;5015111;28;20474;-71
2023/04/26 02:18:26;;;;;;;12.67;6.23;;;4.70;99.90;;;;;;5016720;28;20448;-72
2023/04/26 02:20:54;;;;;;;13.10;6.97;;;4.70;99.90;;;;;;5016358;28;20447;-71
2023/04/26 02:23:23;;;;;;;12.47;6.73;;;4.60;99.90;;;;;;5015264;28;20503;-71
2023/04/26 02:25:51;;;;;;;10.53;6.40;;;4.60;99.90;;;;;;5016480;28;20530;-71
2023/04/26 02:28:20;;;;;;;11.80;7.00;;;4.60;99.90;;;;;;5016267;28;20436;-71
2023/04/26 02:30:49;;;;;;;8.83;6.00;;;4.60;99.90;;;;;;5016119;28;20844;-71
2023/04/26 02:33:18;;;;;;;11.07;6.57;;;4.60;99.90;;;;;;5014949;28;20487;-71
2023/04/26 02:35:47;;;;;;;10.40;5.73;;;4.50;99.90;;;;;;5015112;28;20976;-71
2023/04/26 02:38:15;;;;;;;13.20;6.30;;;4.50;99.90;;;;;;5014428;28;20523;-71
2023/04/26 02:40:44;;;;;;;13.90;6.60;;;4.50;99.90;;;;;;5015115;28;20637;-71
2023/04/26 02:43:13;;;;;;;11.27;6.80;;;4.50;99.90;;;;;;5014094;28;20472;-71
2023/04/26 02:45:43;;;;;;;9.33;5.43;;;4.50;99.90;;;;;;5013754;28;20479;-71
2023/04/26 02:48:13;;;;;;;13.67;7.03;;;4.50;99.90;;;;;;5013177;28;20491;-72
2023/04/26 02:50:41;;;;;;;11.30;6.20;;;4.50;99.90;;;;;;5013369;28;20452;-71
2023/04/26 02:53:11;;;;;;;9.83;6.33;;;4.40;99.90;;;;;;5013509;28;20506;-72
2023/04/26 02:55:40;;;;;;;10.63;6.50;;;4.40;99.90;;;;;;5013463;28;20448;-71
2023/04/26 02:58:08;;;;;;;8.90;5.63;;;4.40;99.90;;;;;;5013369;28;20490;-71
2023/04/26 03:00:36;;;;;;;9.50;6.37;;;4.40;99.90;;;;;;5012983;28;20860;-73
2023/04/26 03:03:06;;;;;;;11.90;6.90;;;4.40;99.90;;;;;;5013375;28;20460;-72
2023/04/26 03:05:35;;;;;;;11.63;7.10;;;4.40;99.90;;;;;;5013026;28;20443;-71
2023/04/26 03:08:03;;;;;;;13.33;7.10;;;4.30;99.90;;;;;;5014342;28;20827;-72
2023/04/26 03:10:31;;;;;;;10.90;6.93;;;4.30;99.90;;;;;;5012930;28;20449;-72
2023/04/26 03:12:59;;;;;;;9.67;6.30;;;4.30;99.90;;;;;;5012835;28;20468;-72
2023/04/26 03:15:27;;;;;;;13.20;6.50;;;4.30;99.90;;;;;;5012651;28;20443;-71
2023/04/26 03:17:56;;;;;;;9.77;7.00;;;4.30;99.90;;;;;;5012822;28;20448;-71
2023/04/26 03:20:26;;;;;;;17.77;6.60;;;4.30;99.90;;;;;;5013187;28;20440;-71
2023/04/26 03:22:55;;;;;;;11.60;6.63;;;4.30;99.90;;;;;;5016925;28;20476;-71
2023/04/26 03:25:23;;;;;;;10.30;7.00;;;4.30;99.90;;;;;;5014135;28;20951;-71
2023/04/26 03:27:51;;;;;;;11.80;7.13;;;4.20;99.90;;;;;;5014233;28;20452;-71
2023/04/26 03:30:19;;;;;;;13.80;7.20;;;4.20;99.90;;;;;;5013961;28;20455;-71
2023/04/26 03:32:47;;;;;;;9.97;6.57;;;4.20;99.90;;;;;;5013709;28;20574;-71
2023/04/26 03:35:15;;;;;;;15.37;7.07;;;4.20;99.90;;;;;;5014933;28;20530;-71
2023/04/26 03:37:45;;;;;;;12.00;6.50;;;4.20;99.90;;;;;;5013567;28;20439;-71
2023/04/26 03:40:15;;;;;;;13.80;7.70;;;4.20;99.90;;;;;;5015269;28;20505;-71
2023/04/26 03:42:45;;;;;;;9.90;6.60;;;4.20;99.90;;;;;;5016755;28;20474;-71
2023/04/26 03:45:15;;;;;;;13.30;6.33;;;4.20;99.90;;;;;;5016876;28;20444;-71
2023/04/26 03:47:43;;;;;;;13.73;6.90;;;4.20;99.90;;;;;;5016896;28;20455;-71
2023/04/26 03:50:11;;;;;;;9.27;6.07;;;4.10;99.90;;;;;;5017378;28;20455;-72
2023/04/26 03:52:39;;;;;;;13.47;6.27;;;4.10;99.90;;;;;;5017909;28;20439;-71
2023/04/26 03:55:10;;;;;;;11.77;6.33;;;4.10;99.90;;;;;;5017105;28;20866;-71
2023/04/26 03:57:39;;;;;;;10.90;6.13;;;4.10;99.90;;;;;;5017117;28;20472;-71
2023/04/26 04:00:10;;;;;;;10.93;5.93;;;4.10;99.90;;;;;;5016784;28;20452;-71
2023/04/26 04:02:42;;;;;;;10.43;5.50;;;4.10;99.90;;;;;;5017332;28;20783;-71
2023/04/26 04:05:16;;;;;;;13.43;7.07;;;4.00;99.90;;;;;;5016283;28;20808;-71
2023/04/26 04:07:44;;;;;;;11.63;6.00;;;4.00;99.90;;;;;;5016530;28;20946;-71
2023/04/26 04:10:15;;;;;;;10.23;6.37;;;4.00;99.90;;;;;;5016461;28;20475;-72
2023/04/26 04:12:44;;;;;;;14.03;5.20;;;4.00;99.90;;;;;;5016439;28;20475;-71
2023/04/26 04:15:12;;;;;;;13.17;5.97;;;4.00;99.90;;;;;;5016035;28;20518;-71
2023/04/26 04:17:45;;;;;;;13.43;5.40;;;4.00;99.90;;;;;;5015889;28;21077;-71
2023/04/26 04:20:13;;;;;;;9.37;5.80;;;3.90;99.90;;;;;;5015829;28;20463;-71
2023/04/26 04:22:42;;;;;;;11.70;6.30;;;4.00;99.90;;;;;;5016394;28;20452;-71
2023/04/26 04:25:10;;;;;;;11.50;6.53;;;3.90;99.90;;;;;;5015155;28;20495;-71
2023/04/26 04:27:42;;;;;;;13.73;6.57;;;3.90;99.90;;;;;;5015785;28;20454;-72
2023/04/26 04:30:11;;;;;;;12.67;6.40;;;3.90;99.90;;;;;;5015795;28;20498;-71
2023/04/26 04:32:43;;;;;;;10.03;5.60;;;4.00;99.90;;;;;;5015110;28;20463;-71
2023/04/26 04:35:13;;;;;;;10.30;6.80;;;4.00;99.90;;;;;;5015662;28;20471;-71
2023/04/26 04:37:42;;;;;;;11.20;5.70;;;4.00;99.90;;;;;;5015123;28;20448;-71
2023/04/26 04:40:12;;;;;;;9.10;5.50;;;4.00;99.90;;;;;;5014714;28;20456;-71
2023/04/26 04:42:45;;;;;;;10.63;5.67;;;4.10;99.90;;;;;;5014821;28;20476;-71
2023/04/26 04:45:14;;;;;;;10.30;5.17;;;4.10;99.90;;;;;;5015524;28;20863;-71
2023/04/26 04:47:44;;;;;;;11.13;6.23;;;4.10;99.90;;;;;;5014522;28;20459;-72
2023/04/26 04:50:13;;;;;;;11.50;5.33;;;4.10;99.90;;;;;;5014622;28;20478;-71
2023/04/26 04:52:42;;;;;;;7.83;5.23;;;4.10;99.90;;;;;;5014777;28;20997;-71
2023/04/26 04:55:11;;;;;;;10.43;5.40;;;4.10;99.90;;;;;;5015403;28;20475;-71
2023/04/26 04:57:40;;;;;;;7.63;4.90;;;4.10;99.90;;;;;;5015459;28;20449;-71
2023/04/26 05:00:14;;;;;;;10.37;5.97;;;4.20;99.90;;;;;;5015132;28;20455;-71
2023/04/26 05:03:07;;;;;;;12.03;4.90;;;4.20;99.90;;;;;;5013342;28;20463;-71
2023/04/26 05:05:36;;;;;;;9.20;5.10;;;4.20;99.90;;;;;;5016313;28;20470;-71
2023/04/26 05:08:06;;;;;;;8.10;5.40;;;4.30;99.90;;;;;;5016022;28;20450;-71
2023/04/26 05:10:34;;;;;;;8.10;4.77;;;4.30;99.90;;;;;;5015417;28;20440;-71
2023/04/26 05:13:04;;;;;;;9.20;4.80;;;4.30;99.90;;;;;;5015863;28;20459;-71
2023/04/26 05:15:33;;;;;;;7.83;5.50;;;4.40;99.90;;;;;;5014927;28;20970;-71
2023/04/26 05:18:02;;;;;;;9.10;5.63;;;4.50;99.90;;;;;;5015009;28;20453;-71
2023/04/26 05:20:31;;;;;;;11.10;5.07;;;4.50;99.90;;;;;;5015305;28;20478;-71
2023/04/26 05:22:59;;;;;;;9.80;4.77;;;4.50;99.90;;;;;;5015444;28;20974;-71
2023/04/26 05:25:28;;;;;;;8.90;5.33;;;4.60;99.90;;;;;;5014713;28;20440;-71
2023/04/26 05:28:03;;;;;;;12.37;6.13;;;4.60;99.90;;;;;;5015882;28;20447;-71
2023/04/26 05:30:44;;;;;;;9.90;5.40;;;4.70;99.90;;;;;;5015431;28;20447;-71
2023/04/26 05:33:41;;;;;;;9.20;5.00;;;4.70;99.90;;;;;;5006569;28;21042;-71
2023/04/26 05:36:17;;;;;;;9.10;5.30;;;4.70;99.90;;;;;;5015862;28;21045;-71
2023/04/26 05:38:45;;;;;;;8.70;4.93;;;4.80;99.90;;;;;;5014229;28;20538;-71
2023/04/26 05:41:13;;;;;;;9.37;5.40;;;4.80;99.90;;;;;;5015607;28;20459;-71
2023/04/26 05:43:41;;;;;;;9.83;5.73;;;4.90;99.90;;;;;;5014310;28;20471;-71
2023/04/26 05:46:11;;;;;;;9.67;5.80;;;4.90;99.90;;;;;;5014321;28;20939;-71
2023/04/26 05:48:40;;;;;;;11.53;6.17;;;5.00;99.90;;;;;;5014163;28;20992;-71
2023/04/26 05:51:08;;;;;;;8.10;4.97;;;5.00;99.90;;;;;;5014542;28;20878;-71
2023/04/26 05:53:36;;;;;;;12.63;5.20;;;5.10;99.90;;;;;;5014265;28;20471;-71
2023/04/26 05:56:05;;;;;;;10.93;5.20;;;5.20;99.90;;;;;;5014228;28;20507;-71
2023/04/26 05:58:34;;;;;;;8.20;5.33;;;5.20;99.90;;;;;;5014041;28;20990;-71
2023/04/26 06:01:03;;;;;;;9.97;5.70;;;5.30;99.90;;;;;;5014427;28;20444;-71
2023/04/26 06:03:33;;;;;;;11.07;5.83;;;5.30;99.90;;;;;;5014612;28;20455;-71
2023/04/26 06:06:02;;;;;;;9.17;5.90;;;5.30;99.90;;;;;;5014746;28;20483;-71
2023/04/26 06:08:30;;;;;;;7.80;5.23;;;5.40;99.90;;;;;;5014221;28;20499;-71
2023/04/26 06:10:58;;;;;;;12.73;5.57;;;5.40;99.90;;;;;;5013938;28;20447;-71
2023/04/26 06:13:27;;;;;;;7.20;4.90;;;5.40;99.90;;;;;;5014088;28;20522;-72
2023/04/26 06:15:55;;;;;;;8.90;5.13;;;5.40;99.90;;;;;;5013921;28;20474;-71
2023/04/26 06:18:23;;;;;;;12.43;5.70;;;5.50;99.90;;;;;;5013826;28;20482;-71
2023/04/26 06:20:53;;;;;;;11.57;6.40;;;5.70;99.90;;;;;;5013967;28;20452;-72
2023/04/26 06:23:22;;;;;;;7.80;5.03;;;6.00;99.90;;;;;;5014662;28;20507;-71
2023/04/26 06:25:50;;;;;;;8.27;5.07;;;6.30;99.90;;;;;;5013743;28;20459;-71
2023/04/26 06:28:18;;;;;;;8.80;5.33;;;6.60;99.90;;;;;;5013298;28;20454;-71
2023/04/26 06:30:47;;;;;;;9.03;4.77;;;6.80;99.90;;;;;;5013220;28;20445;-71
2023/04/26 06:33:15;;;;;;;9.03;5.50;;;7.00;99.90;;;;;;5013232;28;20465;-71
2023/04/26 06:35:43;;;;;;;6.67;4.70;;;7.20;99.90;;;;;;5014511;28;20469;-71
2023/04/26 06:38:13;;;;;;;9.10;4.90;;;7.40;99.90;;;;;;5013477;28;20454;-71
2023/04/26 06:40:42;;;;;;;9.60;5.33;;;7.60;99.90;;;;;;5014544;28;20474;-71
2023/04/26 06:43:11;;;;;;;9.90;5.27;;;7.80;99.90;;;;;;5014087;28;20462;-72
2023/04/26 06:45:45;;;;;;;9.10;4.77;;;8.00;99.90;;;;;;5013769;28;20519;-71
2023/04/26 06:48:14;;;;;;;9.17;4.40;;;8.20;99.90;;;;;;5013998;28;20477;-72
2023/04/26 06:50:42;;;;;;;7.40;4.63;;;8.40;99.90;;;;;;5014453;28;20812;-72
2023/04/26 06:53:10;;;;;;;7.57;5.33;;;8.50;99.90;;;;;;5013931;28;20455;-71
2023/04/26 06:55:39;;;;;;;8.27;4.23;;;8.70;99.90;;;;;;5016905;28;20475;-72
2023/04/26 06:58:07;;;;;;;9.60;5.47;;;8.80;99.90;;;;;;5015301;28;20443;-72
2023/04/26 07:00:35;;;;;;;7.03;4.30;;;8.90;99.90;;;;;;5019262;28;20444;-72
2023/04/26 07:03:04;;;;;;;9.53;5.17;;;9.10;99.90;;;;;;5019684;28;20464;-72
2023/04/26 07:05:32;;;;;;;9.10;4.70;;;9.20;99.90;;;;;;5015098;28;20444;-72
2023/04/26 07:08:00;;;;;;;9.40;4.70;;;9.40;99.90;;;;;;5015115;28;20816;-72
2023/04/26 07:10:28;;;;;;;9.07;4.40;;;9.50;99.90;;;;;;5015708;28;20478;-72
2023/04/26 07:12:58;;;;;;;7.73;4.03;;;9.60;99.90;;;;;;5014128;28;20460;-71
2023/04/26 07:15:26;;;;;;;7.40;4.20;;;9.70;99.90;;;;;;5016116;28;20467;-71
2023/04/26 07:17:54;;;;;;;8.20;4.17;;;9.90;99.90;;;;;;5018453;28;20450;-71
2023/04/26 07:20:23;;;;;;;5.93;4.27;;;10.00;99.90;;;;;;5018232;28;20488;-72
2023/04/26 07:22:51;;;;;;;8.60;4.43;;;10.10;99.90;;;;;;5017652;28;20498;-72
2023/04/26 07:25:19;;;;;;;9.37;5.33;;;10.30;99.90;;;;;;5017919;28;20444;-71
2023/04/26 07:27:50;;;;;;;9.03;3.77;;;10.30;99.90;;;;;;5018673;28;20450;-71
2023/04/26 07:30:20;;;;;;;6.80;3.90;;;10.40;99.90;;;;;;5017209;28;20430;-71
2023/04/26 07:32:48;;;;;;;7.27;4.30;;;10.60;99.90;;;;;;5017565;28;20463;-71
2023/04/26 07:35:16;;;;;;;7.20;4.00;;;10.70;99.90;;;;;;5017277;28;20522;-72
2023/04/26 07:37:44;;;;;;;7.07;4.37;;;10.80;99.90;;;;;;5017270;28;20439;-72
2023/04/26 07:40:13;;;;;;;7.47;3.60;;;10.90;99.90;;;;;;5017068;28;20436;-72
2023/04/26 07:42:41;;;;;;;10.20;3.87;;;11.00;99.90;;;;;;5016025;28;20440;-72
2023/04/26 07:45:11;;;;;;;9.73;3.70;;;11.10;99.90;;;;;;5017075;28;20436;-72
2023/04/26 07:47:40;;;;;;;6.63;2.97;;;11.30;99.90;;;;;;5016811;28;20822;-72
2023/04/26 07:50:10;;;;;;;8.10;4.70;;;11.30;99.90;;;;;;5017436;28;20801;-72
2023/04/26 07:52:38;;;;;;;6.47;3.57;;;11.20;99.90;;;;;;5016759;28;20498;-72
2023/04/26 07:55:08;;;;;;;9.23;4.13;;;11.00;99.90;;;;;;5016746;28;20813;-72
2023/04/26 07:57:36;;;;;;;8.37;4.70;;;10.80;99.90;;;;;;5016984;28;20471;-72
2023/04/26 08:00:08;;;;;;;5.60;3.37;;;10.70;99.90;;;;;;5015743;28;20446;-72
2023/04/26 08:02:40;;;;;;;8.33;3.60;;;10.50;99.90;;;;;;5017216;28;20423;-72
2023/04/26 08:05:12;;;;;;;8.10;3.73;;;10.50;99.90;;;;;;5017320;28;20416;-71
2023/04/26 08:07:42;;;;;;;7.97;3.97;;;10.50;99.90;;;;;;5016860;28;20436;-71
2023/04/26 08:10:11;;;;;;;8.63;4.00;;;10.50;99.90;;;;;;5015968;28;20455;-72
2023/04/26 08:12:39;;;;;;;6.80;3.87;;;10.60;99.90;;;;;;5016889;28;20679;-71
2023/04/26 08:15:11;;;;;;;5.47;3.60;;;10.70;99.90;;;;;;5015275;28;20448;-71
2023/04/26 08:17:41;;;;;;;7.30;3.73;;;10.80;99.90;;;;;;5015183;28;20464;-72
2023/04/26 08:20:10;;;;;;;14.77;4.33;;;10.90;99.90;;;;;;5016522;28;20474;-72
2023/04/26 08:22:38;;;;;;;7.50;3.70;;;10.90;99.90;;;;;;5016667;28;20440;-72
2023/04/26 08:25:07;;;;;;;9.30;4.10;;;11.00;99.90;;;;;;5014763;28;20822;-71
2023/04/26 08:27:36;;;;;;;9.23;3.90;;;11.20;99.90;;;;;;5015338;28;20444;-71
2023/04/26 08:30:05;;;;;;;8.93;3.77;;;11.40;99.90;;;;;;5016303;28;20435;-72
2023/04/26 08:32:34;;;;;;;7.90;4.37;;;11.60;99.90;;;;;;5015253;28;20443;-71
2023/04/26 08:35:04;;;;;;;6.63;4.43;;;11.70;99.90;;;;;;5016632;28;20942;-72
2023/04/26 08:37:32;;;;;;;8.27;3.70;;;11.60;99.90;;;;;;5017359;28;20468;-72
2023/04/26 08:40:00;;;;;;;10.63;4.53;;;11.40;99.90;;;;;;5017153;28;20471;-72
2023/04/26 08:42:28;;;;;;;8.23;3.63;;;11.30;99.90;;;;;;5015582;28;20947;-72
2023/04/26 08:45:01;;;;;;;7.40;3.50;;;11.10;99.90;;;;;;5016385;28;20926;-72
2023/04/26 08:47:36;;;;;;;7.10;3.70;;;11.00;99.90;;;;;;5016809;28;20519;-72
2023/04/26 08:50:08;;;;;;;7.23;3.67;;;10.90;99.90;;;;;;5015420;28;20447;-71
2023/04/26 08:52:36;;;;;;;7.60;3.80;;;10.90;99.90;;;;;;5016118;28;20424;-72
2023/04/26 08:55:09;;;;;;;6.93;3.93;;;10.90;99.90;;;;;;5016275;28;20498;-72
2023/04/26 08:57:37;;;;;;;8.67;3.73;;;10.90;99.90;;;;;;5016458;28;20452;-72
2023/04/26 09:00:09;;;;;;;7.00;4.30;;;10.90;99.90;;;;;;5015801;28;20532;-72
2023/04/26 09:02:37;;;;;;;7.17;3.73;;;11.10;99.90;;;;;;5015764;28;20516;-72
2023/04/26 09:05:08;;;;;;;10.00;3.50;;;11.10;99.90;;;;;;5015659;28;20440;-72
2023/04/26 09:07:40;;;;;;;9.13;4.27;;;11.00;99.90;;;;;;5014276;28;20487;-72
2023/04/26 09:10:11;;;;;;;8.80;5.03;;;10.90;99.90;;;;;;5015809;28;20524;-72
2023/04/26 09:12:40;;;;;;;6.63;3.63;;;10.90;99.90;;;;;;5015440;28;20436;-72
2023/04/26 09:15:09;;;;;;;6.77;3.87;;;10.80;99.90;;;;;;5015899;28;20798;-72
2023/04/26 09:17:40;;;;;;;7.73;4.00;;;10.60;99.90;;;;;;5015779;28;20467;-72
2023/04/26 09:20:22;;;;;;;8.00;3.57;;;10.50;99.90;;;;;;5015506;28;20416;-72
2023/04/26 09:22:51;;;;;;;7.63;3.90;;;10.40;99.90;;;;;;5015267;28;20524;-72
2023/04/26 09:25:28;;;;;;;7.97;3.90;;;10.30;99.90;;;;;;5015452;28;20436;-72
2023/04/26 09:27:57;;;;;;;8.03;3.77;;;10.20;99.90;;;;;;5014514;28;20472;-72
2023/04/26 09:30:27;;;;;;;7.57;3.63;;;10.10;99.90;;;;;;5015499;28;20490;-72
2023/04/26 09:32:56;;;;;;;6.50;3.43;;;10.00;99.90;;;;;;5015641;28;20459;-71
2023/04/26 09:35:32;;;;;;;7.23;3.63;;;9.80;99.90;;;;;;5015940;28;20432;-71
2023/04/26 09:38:02;;;;;;;6.50;3.10;;;9.70;99.90;;;;;;5015753;28;20526;-71
2023/04/26 09:40:40;;;;;;;7.20;3.90;;;9.50;99.90;;;;;;5016528;28;20957;-72
2023/04/26 09:43:10;;;;;;;8.40;4.10;;;9.30;99.90;;;;;;5015639;28;20468;-72
2023/04/26 09:45:48;;;;;;;5.30;3.57;;;9.30;99.90;;;;;;5015808;28;20448;-71
2023/04/26 09:48:21;;;;;;;6.30;4.00;;;9.20;99.90;;;;;;5015314;28;20507;-72
2023/04/26 09:50:53;;;;;;;6.67;3.70;;;9.10;99.90;;;;;;5016074;28;20428;-72
2023/04/26 09:53:29;;;;;;;7.60;4.17;;;9.00;99.90;;;;;;5013834;28;20548;-72
2023/04/26 09:56:07;;;;;;;8.40;4.50;;;9.00;99.90;;;;;;5015889;28;20420;-71
2023/04/26 09:58:36;;;;;;;6.60;4.37;;;9.00;99.90;;;;;;5015226;28;20448;-72
2023/04/26 10:01:05;;;;;;;9.37;5.47;;;9.00;99.90;;;;;;5014325;28;20451;-71
2023/04/26 10:03:34;;;;;;;5.27;4.20;;;9.10;99.90;;;;;;5015457;28;20451;-72
2023/04/26 10:06:05;;;;;;;6.03;4.20;;;9.20;99.90;;;;;;5015887;28;20471;-71
2023/04/26 10:08:33;;;;;;;9.47;4.47;;;9.30;99.90;;;;;;5016078;28;20527;-71
2023/04/26 10:11:04;;;;;;;7.87;4.57;;;9.40;99.90;;;;;;5015952;28;20797;-72
2023/04/26 10:13:32;;;;;;;7.83;4.63;;;9.50;99.90;;;;;;5015218;28;20472;-72
2023/04/26 10:16:01;;;;;;;8.17;4.80;;;9.50;99.90;;;;;;5015644;28;20424;-71
2023/04/26 10:18:30;;;;;;;8.00;4.20;;;9.60;99.90;;;;;;5014880;28;20468;-72
2023/04/26 10:21:00;;;;;;;7.00;4.20;;;9.70;99.90;;;;;;5015398;28;20811;-72
2023/04/26 10:23:32;;;;;;;9.93;4.90;;;9.80;99.90;;;;;;5014122;28;20495;-71
2023/04/26 10:26:00;;;;;;;7.87;4.77;;;9.90;99.90;;;;;;5015475;28;20880;-71
2023/04/26 10:28:54;;;;;;;6.90;4.70;;;10.10;99.90;;;;;;5013664;28;20798;-71
2023/04/26 10:32:10;;;;;;;6.90;4.17;;;10.20;99.90;;;;;;5014343;28;20947;-71
2023/04/26 10:34:39;;;;;;;9.50;5.10;;;10.30;99.90;;;;;;5014514;28;20899;-71
2023/04/26 10:37:11;;;;;;;7.40;4.97;;;10.20;99.90;;;;;;5014494;28;20475;-71
2023/04/26 10:39:42;;;;;;;5.50;2.47;;;10.20;99.90;;;;;;5014168;28;20833;-71
2023/04/26 10:42:24;;;;;;;4.70;2.30;;;10.10;99.90;;;;;;5012637;28;20443;-71
2023/04/26 10:44:54;;;;;;;5.97;1.80;;;10.10;99.90;;;;;;5014297;28;20486;-71
2023/04/26 10:47:35;;;;;;;8.03;3.20;;;10.10;99.90;;;;;;5013593;28;20440;-71
2023/04/26 10:50:07;;;;;;;9.80;3.20;;;10.10;99.90;;;;;;5013163;28;20487;-72
2023/04/26 10:52:36;;;;;;;5.63;2.77;;;10.00;99.90;;;;;;5013510;28;20420;-72
2023/04/26 10:55:07;;;;;;;5.43;3.00;;;10.00;99.90;;;;;;5013292;28;20490;-72
2023/04/26 10:57:49;;;;;;;7.57;3.37;;;9.90;99.90;;;;;;5013883;28;20907;-72
2023/04/26 11:00:20;;;;;;;6.30;2.80;;;10.00;99.90;;;;;;5014074;28;20478;-72
2023/04/26 11:02:58;;;;;;;5.63;3.00;;;10.00;99.90;;;;;;5012380;28;20474;-72
2023/04/26 11:05:51;;;;;;;5.33;2.93;;;10.10;99.90;;;;;;5013417;28;20522;-71
2023/04/26 11:08:20;;;;;;;5.20;2.90;;;10.30;99.90;;;;;;5013608;28;20803;-71
2023/04/26 11:11:04;;;;;;;6.10;2.73;;;10.40;99.90;;;;;;5013888;28;20489;-73
2023/04/26 11:13:33;;;;;;;5.90;2.73;;;10.50;99.90;;;;;;5013982;28;20823;-72
2023/04/26 11:16:03;;;;;;;6.10;2.40;;;10.60;99.90;;;;;;5013638;28;20842;-72
2023/04/26 11:18:31;;;;;;;5.73;2.43;;;10.70;99.90;;;;;;5013818;28;20822;-72
2023/04/26 11:21:00;;;;;;;6.80;1.90;;;10.80;99.90;;;;;;5013829;28;20485;-72
2023/04/26 11:23:29;;;;;;;5.63;2.87;;;11.00;99.90;;;;;;5013906;28;20488;-71
2023/04/26 11:26:01;;;;;;;4.60;1.80;;;11.20;99.90;;;;;;5012593;28;20451;-71
2023/04/26 11:28:30;;;;;;;5.70;2.30;;;11.20;99.90;;;;;;5013767;28;20421;-72
2023/04/26 11:31:01;;;;;;;7.80;2.60;;;11.30;99.90;;;;;;5013783;28;20862;-72
2023/04/26 11:33:29;;;;;;;5.60;2.20;;;11.40;99.90;;;;;;5013416;28;20994;-72
2023/04/26 11:35:58;;;;;;;4.90;2.43;;;11.50;99.90;;;;;;5012604;28;20951;-72
2023/04/26 11:38:27;;;;;;;5.30;2.40;;;11.50;99.80;;;;;;5013963;28;20478;-72
2023/04/26 11:40:59;;;;;;;4.60;2.50;;;11.60;99.60;;;;;;5013514;28;20439;-72
2023/04/26 11:43:35;;;;;;;5.23;2.67;;;11.50;99.60;;;;;;5013951;28;20468;-72
2023/04/26 11:46:03;;;;;;;5.20;2.80;;;11.50;99.60;;;;;;5014018;28;20420;-71
2023/04/26 11:48:33;;;;;;;7.93;3.50;;;11.50;99.50;;;;;;5013090;28;20443;-71
2023/04/26 11:51:03;;;;;;;9.23;3.43;;;11.40;99.40;;;;;;5014573;28;21025;-72
2023/04/26 11:53:39;;;;;;;5.67;2.17;;;11.30;99.30;;;;;;5014614;28;20529;-72
2023/04/26 11:56:16;;;;;;;4.47;1.87;;;11.10;99.30;;;;;;5014222;28;20526;-72
2023/04/26 11:58:46;;;;;;;4.40;2.10;;;10.90;99.50;;;;;;5014796;28;20510;-72
2023/04/26 12:01:21;;;;;;;3.97;2.00;;;10.70;99.60;;;;;;5015827;28;20927;-72
2023/04/26 12:03:51;;;;;;;4.73;2.23;;;10.50;99.80;;;;;;5017475;28;20458;-72
2023/04/26 12:06:20;;;;;;;6.50;2.30;;;10.30;99.90;;;;;;5016308;28;20494;-72
2023/04/26 12:08:52;;;;;;;4.90;2.33;;;10.10;99.90;;;;;;5017755;28;20448;-72
2023/04/26 12:11:22;;;;;;;4.60;2.17;;;10.00;99.90;;;;;;5018279;28;20420;-72
2023/04/26 12:13:50;;;;;;;6.10;2.40;;;9.80;99.90;;;;;;5017871;28;20559;-72
2023/04/26 12:16:18;;;;;;;4.10;2.10;;;9.70;99.90;;;;;;5017907;28;20439;-72
2023/04/26 12:18:55;;;;;;;5.03;2.53;;;9.50;99.90;;;;;;5017926;28;20490;-72
2023/04/26 12:21:24;;;;;;;5.80;2.83;;;9.40;99.90;;;;;;5017451;28;20432;-71
2023/04/26 12:23:56;;;;;;;3.60;1.97;;;9.50;99.90;;;;;;5017617;28;20971;-71
2023/04/26 12:26:43;;;;;;;4.00;2.33;;;9.40;99.90;;;;;;5017437;28;20436;-71
2023/04/26 12:29:11;;;;;;;4.60;1.93;;;9.50;99.90;;;;;;5017628;28;20424;-71
2023/04/26 12:31:40;;;;;;;4.87;2.13;;;9.50;99.90;;;;;;5016116;28;20450;-71
2023/04/26 12:34:08;;;;;;;4.43;1.83;;;9.60;99.90;;;;;;5017476;28;20974;-71
2023/04/26 12:36:36;;;;;;;5.90;2.57;;;9.70;99.90;;;;;;5017112;28;20455;-71
2023/04/26 12:39:05;;;;;;;5.13;2.60;;;9.80;99.90;;;;;;5017035;28;20550;-71
2023/04/26 12:41:33;;;;;;;5.30;2.50;;;9.90;99.90;;;;;;5017058;28;20961;-71
2023/04/26 12:44:03;;;;;;;5.53;1.93;;;10.10;99.90;;;;;;5017029;28;20467;-72
2023/04/26 12:46:31;;;;;;;6.10;2.20;;;10.20;99.90;;;;;;5016854;28;20440;-72
2023/04/26 12:48:59;;;;;;;4.80;2.50;;;10.20;99.90;;;;;;5016918;28;20452;-72
2023/04/26 12:51:27;;;;;;;4.93;2.20;;;10.30;99.90;;;;;;5017134;28;21005;-72
2023/04/26 12:53:55;;;;;;;6.40;2.43;;;10.30;99.90;;;;;;5017430;28;20456;-72
2023/04/26 12:56:24;;;;;;;7.47;2.40;;;10.40;99.90;;;;;;5017162;28;20435;-72
2023/04/26 12:58:52;;;;;;;4.57;2.20;;;10.40;99.90;;;;;;5016906;28;20550;-71
2023/04/26 13:01:21;;;;;;;7.30;2.50;;;10.40;99.90;;;;;;5017064;28;20436;-71
2023/04/26 13:03:50;;;;;;;4.73;2.60;;;10.30;99.90;;;;;;5016617;28;20502;-71
2023/04/26 13:06:18;;;;;;;7.43;2.43;;;10.30;99.90;;;;;;5016609;28;20947;-71